Aviation Digital Data Service (ADDS)

Output produced by METARs form (0222 UTC 19 December 2018)
found at http://aviationweather.gov/metar/data/
 
KEMT 190147Z 21004KT 10SM CLR 17/12 A3014
KPOC 190147Z 27003KT 10SM CLR 14/09 A3015
KFUL 190153Z 00000KT 10SM CLR 17/11 A3013 RMK AO2 SLP202 T01670106
KBUR 190153Z 18003KT 10SM CLR 14/12 A3013 RMK AO2 SLP197 T01440122 $
KBUR 182340Z 1900/1924 18005KT P6SM SCT250 
     FM190300 04004KT P6SM SKC 
     FM190800 VRB03KT P6SM SKC 
     FM191600 14005KT P6SM SKC
       
KONT 190153Z 27007KT 10SM FEW020 FEW150 BKN230 16/08 A3014 RMK AO2 SLP203 T01610083
KONT 182337Z 1900/2006 VRB05KT P6SM SCT250
       
KCNO 190153Z 23005KT 7SM BKN250 16/11 A3015 RMK AO2 SLP209 T01560106
KAJO 190156Z AUTO 10SM CLR RMK AO2 SLPNO FZRANO $
KLGB 190153Z 30006KT 10SM CLR 16/13 A3014 RMK AO2 SLP206 T01610128 $
KLGB 182340Z 1900/1924 29006KT P6SM SKC 
     FM190600 VRB03KT 4SM BR SKC 
     FM191600 17005KT P6SM SKC
       
KTOA 190154Z 27007KT 10SM FEW030 14/12 A3014
KHHR 190153Z 25005KT 10SM CLR 16/13 A3015 RMK AO2 SLP208 T01560128 $
KLAX 190153Z 25006KT 10SM FEW030 FEW250 15/13 A3015 RMK AO2 SLP208 T01500128
KLAX 182340Z 1900/2006 25009KT P6SM FEW030 SCT250 
     FM190500 VRB03KT P6SM SKC 
     FM191400 VRB03KT 5SM BR SKC 
     FM191800 26010KT P6SM SKC 
     FM200400 27005KT P6SM SKC
       
KAVX 190151Z AUTO 30006KT 10SM CLR 13/08 A3016 RMK AO2 SLP210 T01280078
KSMO 190151Z 24004KT 10SM CLR 17/12 A3015 RMK AO2 SLP208 T01670122
KSMO 182340Z 1900/1924 24006KT P6SM SCT012 SCT250 
     FM190300 VRB03KT P6SM SKC 
     FM191600 23005KT P6SM SKC
       
KCMA 190155Z 00000KT 10SM CLR 14/12 A3014 RMK AO2 SLP214 T01440117
KCMA 182340Z 1900/1924 23009KT P6SM SCT250 
     FM190200 VRB03KT P6SM SKC 
     FM190600 06005KT P6SM SKC 
     FM191600 VRB03KT P6SM SKC
       
KOXR 190151Z 00000KT 10SM CLR 14/11 A3014 RMK AO2 SLP206 T01390111
KOXR 182340Z 1900/1924 25011KT P6SM SCT250 
     FM190300 VRB03KT P6SM SKC 
     FM190900 07005KT P6SM SKC 
     FM191600 VRB03KT P6SM SKC
       
KRAL 190153Z 26003KT 10SM CLR 16/09 A3014 RMK AO2 SLP197 T01610094
KRIV 190158Z AUTO 28003KT 10SM CLR 13/10 A3014 RMK AO2 SLP206 T01270104
TAF KRIV 182000Z 1820/2002 30009KT 9999 SCT300 QNH3014INS 
     BECMG 1902/1903 VRB04KT 9999 SCT300 QNH3016INS 
     BECMG 1916/1917 14006KT 9999 FEW300 QNH3012INS TX19/1821Z TN05/1914Z
       
KF70 190215Z AUTO 12003KT 10SM CLR 14/10 A3015 RMK AO1
KF70 190155Z AUTO 00000KT 10SM CLR 15/11 A3015 RMK AO1
KF70 190135Z AUTO 21004KT 10SM CLR 16/11 A3015 RMK AO1
KRNM 190153Z 28003KT 10SM CLR 11/09 A3015 RMK AO2 SLP207 T01110094
KCRQ 190153Z 00000KT 7SM CLR 16/13 A3013 RMK AO2 SLP203 T01560128
KCRQ 182337Z 1900/1924 VRB04KT P6SM SCT008 SCT250 
     FM191400 27005KT P6SM SCT250
       
KOKB 190152Z AUTO 00000KT 9SM CLR 15/13 A3013 RMK AO2 SLP202 T01500133
KIZA 190215Z AUTO 20004KT 10SM CLR 12/08 A3016 RMK AO2
KIZA 190155Z AUTO 22004KT 10SM CLR 13/08 A3016 RMK AO2
KIZA 190135Z AUTO 24008KT 10SM CLR 13/08 A3015 RMK AO2